sensor_id;sensor_type;location;lat;lon;timestamp;P1;durP1;ratioP1;P2;durP2;ratioP2
769;SDS011;368;48.698;9.116;2023-06-04T00:02:22;10.20;;;9.20;;
769;SDS011;368;48.698;9.116;2023-06-04T00:04:49;9.57;;;8.23;;
769;SDS011;368;48.698;9.116;2023-06-04T00:07:16;9.67;;;8.70;;
769;SDS011;368;48.698;9.116;2023-06-04T00:09:43;9.27;;;8.47;;
769;SDS011;368;48.698;9.116;2023-06-04T00:12:12;9.47;;;8.40;;
769;SDS011;368;48.698;9.116;2023-06-04T00:14:39;8.93;;;7.97;;
769;SDS011;368;48.698;9.116;2023-06-04T00:17:07;10.53;;;9.53;;
769;SDS011;368;48.698;9.116;2023-06-04T00:19:34;13.27;;;8.30;;
769;SDS011;368;48.698;9.116;2023-06-04T00:22:01;8.90;;;7.80;;
769;SDS011;368;48.698;9.116;2023-06-04T00:24:28;9.03;;;8.00;;
769;SDS011;368;48.698;9.116;2023-06-04T00:26:54;10.40;;;8.63;;
769;SDS011;368;48.698;9.116;2023-06-04T00:29:21;12.23;;;8.07;;
769;SDS011;368;48.698;9.116;2023-06-04T00:31:48;12.30;;;7.80;;
769;SDS011;368;48.698;9.116;2023-06-04T00:34:16;9.90;;;7.53;;
769;SDS011;368;48.698;9.116;2023-06-04T00:36:43;8.70;;;7.90;;
769;SDS011;368;48.698;9.116;2023-06-04T00:39:10;9.73;;;7.57;;
769;SDS011;368;48.698;9.116;2023-06-04T00:41:38;10.77;;;8.17;;
769;SDS011;368;48.698;9.116;2023-06-04T00:44:04;7.57;;;6.90;;
769;SDS011;368;48.698;9.116;2023-06-04T00:46:34;9.07;;;8.17;;
769;SDS011;368;48.698;9.116;2023-06-04T00:49:01;7.80;;;7.00;;
769;SDS011;368;48.698;9.116;2023-06-04T00:51:31;10.13;;;7.77;;
769;SDS011;368;48.698;9.116;2023-06-04T00:53:58;12.73;;;7.97;;
769;SDS011;368;48.698;9.116;2023-06-04T00:56:26;8.60;;;7.70;;
769;SDS011;368;48.698;9.116;2023-06-04T00:58:53;7.80;;;6.93;;
769;SDS011;368;48.698;9.116;2023-06-04T01:01:22;10.87;;;8.33;;
769;SDS011;368;48.698;9.116;2023-06-04T01:03:53;9.40;;;7.57;;
769;SDS011;368;48.698;9.116;2023-06-04T01:06:23;8.63;;;7.57;;
769;SDS011;368;48.698;9.116;2023-06-04T01:08:56;11.43;;;8.03;;
769;SDS011;368;48.698;9.116;2023-06-04T01:11:31;9.00;;;7.77;;
769;SDS011;368;48.698;9.116;2023-06-04T01:13:59;10.87;;;7.80;;
769;SDS011;368;48.698;9.116;2023-06-04T01:16:26;7.97;;;7.27;;
769;SDS011;368;48.698;9.116;2023-06-04T01:18:56;8.33;;;7.47;;
769;SDS011;368;48.698;9.116;2023-06-04T01:21:27;11.53;;;8.10;;
769;SDS011;368;48.698;9.116;2023-06-04T01:23:57;12.70;;;8.40;;
769;SDS011;368;48.698;9.116;2023-06-04T01:26:30;9.23;;;7.70;;
769;SDS011;368;48.698;9.116;2023-06-04T01:28:58;10.33;;;8.53;;
769;SDS011;368;48.698;9.116;2023-06-04T01:31:26;9.13;;;8.20;;
769;SDS011;368;48.698;9.116;2023-06-04T01:33:57;9.10;;;7.07;;
769;SDS011;368;48.698;9.116;2023-06-04T01:36:24;8.23;;;7.00;;
769;SDS011;368;48.698;9.116;2023-06-04T01:38:51;11.30;;;7.90;;
769;SDS011;368;48.698;9.116;2023-06-04T01:41:19;8.63;;;7.73;;
769;SDS011;368;48.698;9.116;2023-06-04T01:43:46;10.27;;;8.60;;
769;SDS011;368;48.698;9.116;2023-06-04T01:46:13;11.97;;;8.53;;
769;SDS011;368;48.698;9.116;2023-06-04T01:48:40;8.97;;;8.10;;
769;SDS011;368;48.698;9.116;2023-06-04T01:51:07;8.50;;;7.60;;
769;SDS011;368;48.698;9.116;2023-06-04T01:53:33;9.03;;;7.53;;
769;SDS011;368;48.698;9.116;2023-06-04T01:56:01;7.80;;;6.97;;
769;SDS011;368;48.698;9.116;2023-06-04T01:58:29;7.87;;;7.10;;
769;SDS011;368;48.698;9.116;2023-06-04T02:00:57;8.90;;;8.00;;
769;SDS011;368;48.698;9.116;2023-06-04T02:03:25;9.23;;;7.40;;
769;SDS011;368;48.698;9.116;2023-06-04T02:05:52;9.63;;;7.17;;
769;SDS011;368;48.698;9.116;2023-06-04T02:08:19;7.57;;;6.60;;
769;SDS011;368;48.698;9.116;2023-06-04T02:10:46;8.60;;;7.50;;
769;SDS011;368;48.698;9.116;2023-06-04T02:13:13;7.33;;;6.60;;
769;SDS011;368;48.698;9.116;2023-06-04T02:15:42;7.43;;;6.70;;
769;SDS011;368;48.698;9.116;2023-06-04T02:18:12;10.20;;;6.60;;
769;SDS011;368;48.698;9.116;2023-06-04T02:20:42;8.10;;;6.80;;
769;SDS011;368;48.698;9.116;2023-06-04T02:23:09;7.70;;;6.47;;
769;SDS011;368;48.698;9.116;2023-06-04T02:25:36;8.07;;;6.70;;
769;SDS011;368;48.698;9.116;2023-06-04T02:28:03;7.40;;;6.37;;
769;SDS011;368;48.698;9.116;2023-06-04T02:30:30;7.70;;;6.27;;
769;SDS011;368;48.698;9.116;2023-06-04T02:32:58;8.77;;;6.50;;
769;SDS011;368;48.698;9.116;2023-06-04T02:35:25;7.00;;;6.20;;
769;SDS011;368;48.698;9.116;2023-06-04T02:37:52;9.40;;;6.93;;
769;SDS011;368;48.698;9.116;2023-06-04T02:40:21;8.30;;;7.03;;
769;SDS011;368;48.698;9.116;2023-06-04T02:42:48;7.37;;;6.67;;
769;SDS011;368;48.698;9.116;2023-06-04T02:45:15;7.17;;;6.00;;
769;SDS011;368;48.698;9.116;2023-06-04T02:47:41;8.30;;;7.50;;
769;SDS011;368;48.698;9.116;2023-06-04T02:50:10;8.77;;;7.20;;
769;SDS011;368;48.698;9.116;2023-06-04T02:52:37;8.13;;;6.80;;
769;SDS011;368;48.698;9.116;2023-06-04T02:55:05;9.03;;;7.33;;
769;SDS011;368;48.698;9.116;2023-06-04T02:57:33;7.53;;;6.57;;
769;SDS011;368;48.698;9.116;2023-06-04T03:00:01;6.40;;;5.80;;
769;SDS011;368;48.698;9.116;2023-06-04T03:02:33;7.80;;;7.00;;
769;SDS011;368;48.698;9.116;2023-06-04T03:05:00;9.03;;;6.60;;
769;SDS011;368;48.698;9.116;2023-06-04T03:07:28;10.17;;;6.87;;
769;SDS011;368;48.698;9.116;2023-06-04T03:09:56;7.30;;;6.50;;
769;SDS011;368;48.698;9.116;2023-06-04T03:12:23;8.90;;;6.33;;
769;SDS011;368;48.698;9.116;2023-06-04T03:14:50;6.80;;;6.10;;
769;SDS011;368;48.698;9.116;2023-06-04T03:17:17;7.27;;;6.17;;
769;SDS011;368;48.698;9.116;2023-06-04T03:19:43;7.53;;;6.37;;
769;SDS011;368;48.698;9.116;2023-06-04T03:22:10;10.90;;;7.30;;
769;SDS011;368;48.698;9.116;2023-06-04T03:24:39;8.20;;;6.73;;
769;SDS011;368;48.698;9.116;2023-06-04T03:27:07;6.23;;;5.63;;
769;SDS011;368;48.698;9.116;2023-06-04T03:29:35;7.13;;;6.43;;
769;SDS011;368;48.698;9.116;2023-06-04T03:32:02;7.43;;;6.20;;
769;SDS011;368;48.698;9.116;2023-06-04T03:34:30;7.80;;;6.60;;
769;SDS011;368;48.698;9.116;2023-06-04T03:36:57;7.73;;;6.47;;
769;SDS011;368;48.698;9.116;2023-06-04T03:39:24;7.80;;;6.73;;
769;SDS011;368;48.698;9.116;2023-06-04T03:41:53;9.37;;;7.47;;
769;SDS011;368;48.698;9.116;2023-06-04T03:44:20;8.50;;;6.83;;
769;SDS011;368;48.698;9.116;2023-06-04T03:46:47;7.10;;;6.40;;
769;SDS011;368;48.698;9.116;2023-06-04T03:49:14;8.50;;;6.93;;
769;SDS011;368;48.698;9.116;2023-06-04T03:51:42;7.03;;;6.30;;
769;SDS011;368;48.698;9.116;2023-06-04T03:54:09;6.90;;;6.20;;
769;SDS011;368;48.698;9.116;2023-06-04T03:56:36;7.37;;;6.67;;
769;SDS011;368;48.698;9.116;2023-06-04T03:59:04;7.77;;;6.33;;
769;SDS011;368;48.698;9.116;2023-06-04T04:01:32;6.90;;;5.50;;
769;SDS011;368;48.698;9.116;2023-06-04T04:03:59;8.63;;;5.50;;
769;SDS011;368;48.698;9.116;2023-06-04T04:06:26;6.20;;;5.60;;
769;SDS011;368;48.698;9.116;2023-06-04T04:08:53;9.70;;;5.97;;
769;SDS011;368;48.698;9.116;2023-06-04T04:11:20;9.07;;;5.37;;
769;SDS011;368;48.698;9.116;2023-06-04T04:13:47;5.47;;;4.50;;
769;SDS011;368;48.698;9.116;2023-06-04T04:16:16;5.90;;;5.30;;
769;SDS011;368;48.698;9.116;2023-06-04T04:18:43;5.70;;;5.10;;
769;SDS011;368;48.698;9.116;2023-06-04T04:21:10;7.87;;;6.20;;
769;SDS011;368;48.698;9.116;2023-06-04T04:23:38;7.37;;;5.40;;
769;SDS011;368;48.698;9.116;2023-06-04T04:26:06;7.07;;;6.37;;
769;SDS011;368;48.698;9.116;2023-06-04T04:28:33;8.20;;;6.47;;
769;SDS011;368;48.698;9.116;2023-06-04T04:31:00;6.73;;;6.10;;
769;SDS011;368;48.698;9.116;2023-06-04T04:33:29;7.10;;;6.40;;
769;SDS011;368;48.698;9.116;2023-06-04T04:36:01;4.73;;;4.23;;
769;SDS011;368;48.698;9.116;2023-06-04T04:38:28;6.50;;;5.50;;
769;SDS011;368;48.698;9.116;2023-06-04T04:40:58;6.90;;;5.30;;
769;SDS011;368;48.698;9.116;2023-06-04T04:43:29;8.97;;;5.30;;
769;SDS011;368;48.698;9.116;2023-06-04T04:45:57;5.50;;;5.00;;
769;SDS011;368;48.698;9.116;2023-06-04T04:48:24;6.23;;;4.60;;
769;SDS011;368;48.698;9.116;2023-06-04T04:50:52;4.20;;;3.80;;
769;SDS011;368;48.698;9.116;2023-06-04T04:53:19;5.87;;;3.97;;
769;SDS011;368;48.698;9.116;2023-06-04T04:55:46;4.90;;;4.50;;
769;SDS011;368;48.698;9.116;2023-06-04T04:58:13;5.03;;;4.50;;
769;SDS011;368;48.698;9.116;2023-06-04T05:00:41;5.40;;;4.47;;
769;SDS011;368;48.698;9.116;2023-06-04T05:03:08;5.43;;;4.83;;
769;SDS011;368;48.698;9.116;2023-06-04T05:05:35;5.80;;;4.90;;
769;SDS011;368;48.698;9.116;2023-06-04T05:08:04;4.90;;;4.43;;
769;SDS011;368;48.698;9.116;2023-06-04T05:10:30;5.57;;;4.63;;
769;SDS011;368;48.698;9.116;2023-06-04T05:12:58;5.07;;;4.60;;
769;SDS011;368;48.698;9.116;2023-06-04T05:15:25;5.87;;;4.10;;
769;SDS011;368;48.698;9.116;2023-06-04T05:17:53;5.27;;;4.33;;
769;SDS011;368;48.698;9.116;2023-06-04T05:20:21;8.00;;;4.30;;
769;SDS011;368;48.698;9.116;2023-06-04T05:22:48;4.67;;;4.27;;
769;SDS011;368;48.698;9.116;2023-06-04T05:25:18;7.80;;;4.70;;
769;SDS011;368;48.698;9.116;2023-06-04T05:27:45;5.20;;;4.70;;
769;SDS011;368;48.698;9.116;2023-06-04T05:30:14;6.13;;;3.63;;
769;SDS011;368;48.698;9.116;2023-06-04T05:32:41;5.10;;;3.80;;
769;SDS011;368;48.698;9.116;2023-06-04T05:35:08;5.50;;;3.80;;
769;SDS011;368;48.698;9.116;2023-06-04T05:37:35;4.13;;;3.50;;
769;SDS011;368;48.698;9.116;2023-06-04T05:40:05;6.10;;;3.50;;
769;SDS011;368;48.698;9.116;2023-06-04T05:42:35;3.90;;;3.30;;
769;SDS011;368;48.698;9.116;2023-06-04T05:45:03;5.00;;;3.40;;
769;SDS011;368;48.698;9.116;2023-06-04T05:47:30;5.37;;;3.50;;
769;SDS011;368;48.698;9.116;2023-06-04T05:49:57;5.43;;;3.93;;
769;SDS011;368;48.698;9.116;2023-06-04T05:52:24;5.60;;;3.67;;
769;SDS011;368;48.698;9.116;2023-06-04T05:54:51;4.17;;;3.17;;
769;SDS011;368;48.698;9.116;2023-06-04T05:57:18;8.70;;;3.60;;
769;SDS011;368;48.698;9.116;2023-06-04T05:59:47;3.50;;;3.20;;
769;SDS011;368;48.698;9.116;2023-06-04T06:02:14;3.10;;;2.80;;
769;SDS011;368;48.698;9.116;2023-06-04T06:04:41;3.27;;;2.97;;
769;SDS011;368;48.698;9.116;2023-06-04T06:07:08;3.20;;;2.90;;
769;SDS011;368;48.698;9.116;2023-06-04T06:09:35;3.00;;;2.70;;
769;SDS011;368;48.698;9.116;2023-06-04T06:12:01;4.67;;;3.00;;
769;SDS011;368;48.698;9.116;2023-06-04T06:14:28;5.33;;;3.00;;
769;SDS011;368;48.698;9.116;2023-06-04T06:16:56;3.20;;;2.90;;
769;SDS011;368;48.698;9.116;2023-06-04T06:19:23;2.47;;;2.27;;
769;SDS011;368;48.698;9.116;2023-06-04T06:21:51;4.03;;;3.20;;
769;SDS011;368;48.698;9.116;2023-06-04T06:24:18;3.17;;;2.20;;
769;SDS011;368;48.698;9.116;2023-06-04T06:26:45;3.77;;;3.37;;
769;SDS011;368;48.698;9.116;2023-06-04T06:29:11;3.40;;;3.10;;
769;SDS011;368;48.698;9.116;2023-06-04T06:31:38;3.70;;;2.60;;
769;SDS011;368;48.698;9.116;2023-06-04T06:34:06;4.50;;;2.87;;
769;SDS011;368;48.698;9.116;2023-06-04T06:36:33;3.60;;;3.07;;
769;SDS011;368;48.698;9.116;2023-06-04T06:39:00;3.10;;;2.80;;
769;SDS011;368;48.698;9.116;2023-06-04T06:41:27;7.37;;;3.10;;
769;SDS011;368;48.698;9.116;2023-06-04T06:43:55;2.80;;;2.60;;
769;SDS011;368;48.698;9.116;2023-06-04T06:46:22;3.50;;;2.90;;
769;SDS011;368;48.698;9.116;2023-06-04T06:48:49;3.13;;;2.67;;
769;SDS011;368;48.698;9.116;2023-06-04T06:51:17;3.63;;;2.77;;
769;SDS011;368;48.698;9.116;2023-06-04T06:53:44;2.97;;;2.63;;
769;SDS011;368;48.698;9.116;2023-06-04T06:56:11;3.43;;;3.13;;
769;SDS011;368;48.698;9.116;2023-06-04T06:58:40;2.70;;;2.50;;
769;SDS011;368;48.698;9.116;2023-06-04T07:01:08;3.47;;;2.70;;
769;SDS011;368;48.698;9.116;2023-06-04T07:03:35;4.60;;;3.10;;
769;SDS011;368;48.698;9.116;2023-06-04T07:06:03;3.07;;;2.77;;
769;SDS011;368;48.698;9.116;2023-06-04T07:08:31;4.33;;;2.70;;
769;SDS011;368;48.698;9.116;2023-06-04T07:10:59;6.20;;;3.00;;
769;SDS011;368;48.698;9.116;2023-06-04T07:13:27;4.53;;;3.00;;
769;SDS011;368;48.698;9.116;2023-06-04T07:15:57;2.73;;;2.53;;
769;SDS011;368;48.698;9.116;2023-06-04T07:18:24;5.67;;;3.20;;
769;SDS011;368;48.698;9.116;2023-06-04T07:20:51;6.13;;;3.17;;
769;SDS011;368;48.698;9.116;2023-06-04T07:23:18;4.10;;;3.37;;
769;SDS011;368;48.698;9.116;2023-06-04T07:25:47;2.90;;;2.40;;
769;SDS011;368;48.698;9.116;2023-06-04T07:28:14;4.17;;;2.80;;
769;SDS011;368;48.698;9.116;2023-06-04T07:30:41;3.87;;;3.30;;
769;SDS011;368;48.698;9.116;2023-06-04T07:33:07;4.27;;;2.63;;
769;SDS011;368;48.698;9.116;2023-06-04T07:35:34;3.70;;;2.93;;
769;SDS011;368;48.698;9.116;2023-06-04T07:38:01;3.90;;;3.27;;
769;SDS011;368;48.698;9.116;2023-06-04T07:40:28;3.67;;;2.70;;
769;SDS011;368;48.698;9.116;2023-06-04T07:42:56;4.23;;;2.90;;
769;SDS011;368;48.698;9.116;2023-06-04T07:45:23;5.50;;;2.70;;
769;SDS011;368;48.698;9.116;2023-06-04T07:47:50;3.13;;;2.83;;
769;SDS011;368;48.698;9.116;2023-06-04T07:50:17;4.60;;;3.10;;
769;SDS011;368;48.698;9.116;2023-06-04T07:52:45;3.73;;;3.00;;
769;SDS011;368;48.698;9.116;2023-06-04T07:55:12;4.10;;;2.97;;
769;SDS011;368;48.698;9.116;2023-06-04T07:57:39;3.23;;;2.73;;
769;SDS011;368;48.698;9.116;2023-06-04T08:00:08;3.97;;;2.87;;
769;SDS011;368;48.698;9.116;2023-06-04T08:02:37;5.63;;;3.10;;
769;SDS011;368;48.698;9.116;2023-06-04T08:05:04;4.00;;;3.60;;
769;SDS011;368;48.698;9.116;2023-06-04T08:07:31;3.97;;;2.63;;
769;SDS011;368;48.698;9.116;2023-06-04T08:09:57;3.23;;;3.00;;
769;SDS011;368;48.698;9.116;2023-06-04T08:12:24;3.60;;;2.63;;
769;SDS011;368;48.698;9.116;2023-06-04T08:14:51;3.63;;;3.33;;
769;SDS011;368;48.698;9.116;2023-06-04T08:17:23;5.17;;;3.50;;
769;SDS011;368;48.698;9.116;2023-06-04T08:19:50;3.83;;;3.10;;
769;SDS011;368;48.698;9.116;2023-06-04T08:22:16;3.70;;;3.10;;
769;SDS011;368;48.698;9.116;2023-06-04T08:24:43;4.07;;;3.10;;
769;SDS011;368;48.698;9.116;2023-06-04T08:27:10;2.97;;;2.70;;
769;SDS011;368;48.698;9.116;2023-06-04T08:29:37;3.07;;;2.87;;
769;SDS011;368;48.698;9.116;2023-06-04T08:32:05;2.80;;;2.50;;
769;SDS011;368;48.698;9.116;2023-06-04T08:34:34;3.17;;;2.87;;
769;SDS011;368;48.698;9.116;2023-06-04T08:37:00;3.77;;;3.20;;
769;SDS011;368;48.698;9.116;2023-06-04T08:39:27;5.87;;;3.07;;
769;SDS011;368;48.698;9.116;2023-06-04T08:41:55;3.70;;;2.63;;
769;SDS011;368;48.698;9.116;2023-06-04T08:44:25;3.20;;;2.90;;
769;SDS011;368;48.698;9.116;2023-06-04T08:46:53;2.63;;;2.40;;
769;SDS011;368;48.698;9.116;2023-06-04T08:49:29;3.73;;;3.20;;
769;SDS011;368;48.698;9.116;2023-06-04T08:52:02;4.17;;;2.70;;
769;SDS011;368;48.698;9.116;2023-06-04T08:54:30;3.80;;;2.53;;
769;SDS011;368;48.698;9.116;2023-06-04T08:56:58;3.43;;;3.00;;
769;SDS011;368;48.698;9.116;2023-06-04T08:59:27;2.90;;;2.60;;
769;SDS011;368;48.698;9.116;2023-06-04T09:01:54;3.70;;;3.20;;
769;SDS011;368;48.698;9.116;2023-06-04T09:04:21;2.67;;;2.47;;
769;SDS011;368;48.698;9.116;2023-06-04T09:06:50;3.33;;;3.03;;
769;SDS011;368;48.698;9.116;2023-06-04T09:09:18;4.00;;;3.00;;
769;SDS011;368;48.698;9.116;2023-06-04T09:11:47;3.70;;;3.00;;
769;SDS011;368;48.698;9.116;2023-06-04T09:14:17;3.57;;;2.40;;
769;SDS011;368;48.698;9.116;2023-06-04T09:16:45;3.40;;;2.57;;
769;SDS011;368;48.698;9.116;2023-06-04T09:19:12;2.77;;;2.50;;
769;SDS011;368;48.698;9.116;2023-06-04T09:21:50;2.63;;;2.33;;
769;SDS011;368;48.698;9.116;2023-06-04T09:24:18;3.30;;;2.60;;
769;SDS011;368;48.698;9.116;2023-06-04T09:26:46;4.73;;;2.73;;
769;SDS011;368;48.698;9.116;2023-06-04T09:29:13;3.37;;;2.40;;
769;SDS011;368;48.698;9.116;2023-06-04T09:31:41;3.30;;;3.00;;
769;SDS011;368;48.698;9.116;2023-06-04T09:34:10;5.20;;;2.67;;
769;SDS011;368;48.698;9.116;2023-06-04T09:36:37;4.70;;;2.80;;
769;SDS011;368;48.698;9.116;2023-06-04T09:39:13;5.57;;;3.30;;
769;SDS011;368;48.698;9.116;2023-06-04T09:41:41;4.13;;;2.80;;
769;SDS011;368;48.698;9.116;2023-06-04T09:44:08;2.93;;;2.73;;
769;SDS011;368;48.698;9.116;2023-06-04T09:46:35;3.20;;;2.90;;
769;SDS011;368;48.698;9.116;2023-06-04T09:49:04;3.83;;;2.80;;
769;SDS011;368;48.698;9.116;2023-06-04T09:51:31;3.23;;;2.70;;
769;SDS011;368;48.698;9.116;2023-06-04T09:53:59;5.97;;;3.43;;
769;SDS011;368;48.698;9.116;2023-06-04T09:56:28;5.33;;;3.00;;
769;SDS011;368;48.698;9.116;2023-06-04T09:58:57;3.93;;;3.13;;
769;SDS011;368;48.698;9.116;2023-06-04T10:01:26;3.30;;;3.00;;
769;SDS011;368;48.698;9.116;2023-06-04T10:03:55;4.40;;;4.00;;
769;SDS011;368;48.698;9.116;2023-06-04T10:06:24;4.20;;;3.20;;
769;SDS011;368;48.698;9.116;2023-06-04T10:08:52;3.13;;;2.83;;
769;SDS011;368;48.698;9.116;2023-06-04T10:11:25;5.10;;;3.00;;
769;SDS011;368;48.698;9.116;2023-06-04T10:14:00;3.17;;;2.87;;
769;SDS011;368;48.698;9.116;2023-06-04T10:16:29;4.60;;;3.80;;
769;SDS011;368;48.698;9.116;2023-06-04T10:18:58;3.40;;;3.10;;
769;SDS011;368;48.698;9.116;2023-06-04T10:21:26;4.20;;;3.60;;
769;SDS011;368;48.698;9.116;2023-06-04T10:23:57;3.50;;;3.20;;
769;SDS011;368;48.698;9.116;2023-06-04T10:26:23;3.83;;;3.53;;
769;SDS011;368;48.698;9.116;2023-06-04T10:28:51;5.03;;;4.63;;
769;SDS011;368;48.698;9.116;2023-06-04T10:31:20;4.00;;;3.70;;
769;SDS011;368;48.698;9.116;2023-06-04T10:33:47;3.77;;;2.97;;
769;SDS011;368;48.698;9.116;2023-06-04T10:36:19;4.20;;;3.27;;
769;SDS011;368;48.698;9.116;2023-06-04T10:38:48;4.20;;;3.33;;
769;SDS011;368;48.698;9.116;2023-06-04T10:41:16;5.07;;;3.77;;
769;SDS011;368;48.698;9.116;2023-06-04T10:43:43;3.57;;;3.10;;
769;SDS011;368;48.698;9.116;2023-06-04T10:46:11;4.07;;;2.80;;
769;SDS011;368;48.698;9.116;2023-06-04T10:48:50;3.70;;;3.40;;
769;SDS011;368;48.698;9.116;2023-06-04T10:51:28;4.83;;;3.90;;
769;SDS011;368;48.698;9.116;2023-06-04T10:53:56;4.03;;;3.73;;
769;SDS011;368;48.698;9.116;2023-06-04T10:56:26;3.90;;;3.50;;
769;SDS011;368;48.698;9.116;2023-06-04T10:58:53;4.03;;;3.67;;
769;SDS011;368;48.698;9.116;2023-06-04T11:01:23;4.23;;;3.83;;
769;SDS011;368;48.698;9.116;2023-06-04T11:03:53;4.10;;;3.73;;
769;SDS011;368;48.698;9.116;2023-06-04T11:06:20;4.03;;;3.70;;
769;SDS011;368;48.698;9.116;2023-06-04T11:08:47;4.80;;;4.07;;
769;SDS011;368;48.698;9.116;2023-06-04T11:11:15;3.83;;;3.53;;
769;SDS011;368;48.698;9.116;2023-06-04T11:13:42;4.23;;;3.83;;
769;SDS011;368;48.698;9.116;2023-06-04T11:16:16;3.93;;;3.63;;
769;SDS011;368;48.698;9.116;2023-06-04T11:18:43;3.83;;;3.53;;
769;SDS011;368;48.698;9.116;2023-06-04T11:21:11;3.93;;;3.53;;
769;SDS011;368;48.698;9.116;2023-06-04T11:23:39;3.67;;;3.37;;
769;SDS011;368;48.698;9.116;2023-06-04T11:26:07;4.73;;;3.70;;
769;SDS011;368;48.698;9.116;2023-06-04T11:28:34;6.67;;;4.27;;
769;SDS011;368;48.698;9.116;2023-06-04T11:31:02;5.10;;;4.67;;
769;SDS011;368;48.698;9.116;2023-06-04T11:33:30;4.50;;;4.10;;
769;SDS011;368;48.698;9.116;2023-06-04T11:36:07;5.63;;;3.97;;
769;SDS011;368;48.698;9.116;2023-06-04T11:38:35;6.00;;;4.03;;
769;SDS011;368;48.698;9.116;2023-06-04T11:41:02;4.50;;;4.10;;
769;SDS011;368;48.698;9.116;2023-06-04T11:43:31;4.37;;;3.90;;
769;SDS011;368;48.698;9.116;2023-06-04T11:45:59;5.00;;;4.60;;
769;SDS011;368;48.698;9.116;2023-06-04T11:48:31;4.17;;;3.80;;
769;SDS011;368;48.698;9.116;2023-06-04T11:50:59;3.80;;;3.50;;
769;SDS011;368;48.698;9.116;2023-06-04T11:53:32;4.80;;;3.90;;
769;SDS011;368;48.698;9.116;2023-06-04T11:56:00;4.00;;;3.70;;
769;SDS011;368;48.698;9.116;2023-06-04T11:58:27;4.63;;;4.00;;
769;SDS011;368;48.698;9.116;2023-06-04T12:00:54;3.97;;;3.63;;
769;SDS011;368;48.698;9.116;2023-06-04T12:03:31;3.63;;;3.33;;
769;SDS011;368;48.698;9.116;2023-06-04T12:06:08;6.20;;;4.20;;
769;SDS011;368;48.698;9.116;2023-06-04T12:08:48;3.50;;;3.20;;
769;SDS011;368;48.698;9.116;2023-06-04T12:11:27;5.33;;;3.47;;
769;SDS011;368;48.698;9.116;2023-06-04T12:13:56;3.33;;;3.03;;
769;SDS011;368;48.698;9.116;2023-06-04T12:16:24;4.20;;;3.80;;
769;SDS011;368;48.698;9.116;2023-06-04T12:18:51;4.87;;;4.13;;
769;SDS011;368;48.698;9.116;2023-06-04T12:21:29;6.53;;;4.37;;
769;SDS011;368;48.698;9.116;2023-06-04T12:24:05;5.53;;;4.33;;
769;SDS011;368;48.698;9.116;2023-06-04T12:26:34;4.33;;;3.93;;
769;SDS011;368;48.698;9.116;2023-06-04T12:29:08;4.30;;;3.90;;
769;SDS011;368;48.698;9.116;2023-06-04T12:31:36;4.93;;;3.83;;
769;SDS011;368;48.698;9.116;2023-06-04T12:34:03;4.63;;;3.33;;
769;SDS011;368;48.698;9.116;2023-06-04T12:36:30;5.30;;;4.80;;
769;SDS011;368;48.698;9.116;2023-06-04T12:39:00;4.40;;;4.00;;
769;SDS011;368;48.698;9.116;2023-06-04T12:41:28;4.83;;;3.20;;
769;SDS011;368;48.698;9.116;2023-06-04T12:43:57;4.23;;;3.43;;
769;SDS011;368;48.698;9.116;2023-06-04T12:46:24;4.27;;;3.87;;
769;SDS011;368;48.698;9.116;2023-06-04T12:48:51;4.90;;;3.83;;
769;SDS011;368;48.698;9.116;2023-06-04T12:51:19;5.53;;;3.93;;
769;SDS011;368;48.698;9.116;2023-06-04T12:53:46;4.50;;;4.10;;
769;SDS011;368;48.698;9.116;2023-06-04T12:56:13;5.00;;;3.50;;
769;SDS011;368;48.698;9.116;2023-06-04T12:58:41;6.17;;;4.23;;
769;SDS011;368;48.698;9.116;2023-06-04T13:01:09;4.73;;;4.30;;
769;SDS011;368;48.698;9.116;2023-06-04T13:03:36;4.33;;;3.93;;
769;SDS011;368;48.698;9.116;2023-06-04T13:06:04;4.60;;;4.20;;
769;SDS011;368;48.698;9.116;2023-06-04T13:08:31;4.80;;;4.30;;
769;SDS011;368;48.698;9.116;2023-06-04T13:10:57;4.73;;;4.33;;
769;SDS011;368;48.698;9.116;2023-06-04T13:13:24;4.87;;;4.13;;
769;SDS011;368;48.698;9.116;2023-06-04T13:15:51;4.57;;;4.23;;
769;SDS011;368;48.698;9.116;2023-06-04T13:18:19;4.50;;;4.10;;
769;SDS011;368;48.698;9.116;2023-06-04T13:20:46;5.50;;;4.07;;
769;SDS011;368;48.698;9.116;2023-06-04T13:23:14;4.40;;;4.00;;
769;SDS011;368;48.698;9.116;2023-06-04T13:25:41;5.10;;;4.37;;
769;SDS011;368;48.698;9.116;2023-06-04T13:28:08;4.27;;;3.87;;
769;SDS011;368;48.698;9.116;2023-06-04T13:30:35;4.23;;;3.93;;
769;SDS011;368;48.698;9.116;2023-06-04T13:33:02;4.57;;;4.17;;
769;SDS011;368;48.698;9.116;2023-06-04T13:35:30;5.17;;;4.73;;
769;SDS011;368;48.698;9.116;2023-06-04T13:37:57;4.53;;;4.13;;
769;SDS011;368;48.698;9.116;2023-06-04T13:40:24;4.73;;;4.00;;
769;SDS011;368;48.698;9.116;2023-06-04T13:42:51;4.00;;;3.60;;
769;SDS011;368;48.698;9.116;2023-06-04T13:45:18;3.53;;;3.33;;
769;SDS011;368;48.698;9.116;2023-06-04T13:47:46;6.23;;;4.80;;
769;SDS011;368;48.698;9.116;2023-06-04T13:50:13;5.43;;;4.47;;
769;SDS011;368;48.698;9.116;2023-06-04T13:52:42;4.40;;;3.80;;
769;SDS011;368;48.698;9.116;2023-06-04T13:55:09;4.77;;;3.80;;
769;SDS011;368;48.698;9.116;2023-06-04T13:57:37;4.60;;;4.20;;
769;SDS011;368;48.698;9.116;2023-06-04T14:00:05;4.30;;;3.90;;
769;SDS011;368;48.698;9.116;2023-06-04T14:02:32;4.83;;;4.17;;
769;SDS011;368;48.698;9.116;2023-06-04T14:05:00;4.93;;;4.43;;
769;SDS011;368;48.698;9.116;2023-06-04T14:07:26;6.83;;;5.20;;
769;SDS011;368;48.698;9.116;2023-06-04T14:09:54;4.77;;;4.00;;
769;SDS011;368;48.698;9.116;2023-06-04T14:12:21;5.20;;;4.40;;
769;SDS011;368;48.698;9.116;2023-06-04T14:14:48;4.47;;;4.00;;
769;SDS011;368;48.698;9.116;2023-06-04T14:17:15;4.90;;;4.40;;
769;SDS011;368;48.698;9.116;2023-06-04T14:19:43;5.23;;;4.47;;
769;SDS011;368;48.698;9.116;2023-06-04T14:22:11;6.40;;;4.33;;
769;SDS011;368;48.698;9.116;2023-06-04T14:24:40;5.07;;;4.57;;
769;SDS011;368;48.698;9.116;2023-06-04T14:27:08;5.07;;;4.20;;
769;SDS011;368;48.698;9.116;2023-06-04T14:29:35;5.10;;;4.60;;
769;SDS011;368;48.698;9.116;2023-06-04T14:32:02;5.67;;;3.87;;
769;SDS011;368;48.698;9.116;2023-06-04T14:34:29;3.97;;;3.40;;
769;SDS011;368;48.698;9.116;2023-06-04T14:36:57;3.93;;;3.53;;
769;SDS011;368;48.698;9.116;2023-06-04T14:39:24;4.80;;;4.40;;
769;SDS011;368;48.698;9.116;2023-06-04T14:41:51;5.53;;;3.93;;
769;SDS011;368;48.698;9.116;2023-06-04T14:44:19;4.70;;;4.30;;
769;SDS011;368;48.698;9.116;2023-06-04T14:46:48;4.63;;;4.23;;
769;SDS011;368;48.698;9.116;2023-06-04T14:49:15;4.60;;;4.17;;
769;SDS011;368;48.698;9.116;2023-06-04T14:51:42;4.47;;;4.07;;
769;SDS011;368;48.698;9.116;2023-06-04T14:54:09;4.87;;;4.47;;
769;SDS011;368;48.698;9.116;2023-06-04T14:56:36;5.03;;;4.47;;
769;SDS011;368;48.698;9.116;2023-06-04T14:59:02;4.90;;;4.43;;
769;SDS011;368;48.698;9.116;2023-06-04T15:01:35;6.57;;;4.40;;
769;SDS011;368;48.698;9.116;2023-06-04T15:04:03;4.43;;;4.03;;
769;SDS011;368;48.698;9.116;2023-06-04T15:06:30;4.20;;;3.80;;
769;SDS011;368;48.698;9.116;2023-06-04T15:08:56;3.50;;;3.20;;
769;SDS011;368;48.698;9.116;2023-06-04T15:11:23;3.63;;;3.33;;
769;SDS011;368;48.698;9.116;2023-06-04T15:13:50;4.67;;;4.27;;
769;SDS011;368;48.698;9.116;2023-06-04T15:16:18;4.73;;;4.17;;
769;SDS011;368;48.698;9.116;2023-06-04T15:18:46;3.90;;;3.50;;
769;SDS011;368;48.698;9.116;2023-06-04T15:21:13;4.80;;;4.40;;
769;SDS011;368;48.698;9.116;2023-06-04T15:23:39;4.43;;;3.77;;
769;SDS011;368;48.698;9.116;2023-06-04T15:26:09;5.17;;;4.70;;
769;SDS011;368;48.698;9.116;2023-06-04T15:28:36;4.87;;;4.20;;
769;SDS011;368;48.698;9.116;2023-06-04T15:31:02;4.73;;;4.30;;
769;SDS011;368;48.698;9.116;2023-06-04T15:33:29;5.77;;;4.30;;
769;SDS011;368;48.698;9.116;2023-06-04T15:35:57;3.67;;;3.37;;
769;SDS011;368;48.698;9.116;2023-06-04T15:38:24;4.90;;;4.40;;
769;SDS011;368;48.698;9.116;2023-06-04T15:40:51;5.10;;;4.60;;
769;SDS011;368;48.698;9.116;2023-06-04T15:43:18;4.93;;;4.43;;
769;SDS011;368;48.698;9.116;2023-06-04T15:45:45;4.37;;;3.53;;
769;SDS011;368;48.698;9.116;2023-06-04T15:48:11;5.87;;;3.73;;
769;SDS011;368;48.698;9.116;2023-06-04T15:50:38;3.80;;;3.37;;